This is the latest recevied weather packets stored in our database for station/object IK0TIX. If no packets are shown the sender has not sent any weather packets the latest 10 day(s).
| Time | Temp. | Humidity | Pressure | Rain* | Wind** | Luminosity | Snow |
|---|---|---|---|---|---|---|---|
| 1777393207 | 25° C | 35% | 1015.8 hPa | 0 mm | - | - | - |
| 1777391668 | 25° C | 32% | 1015.7 hPa | 0 mm | - | - | - |
| 1777389612 | 25° C | 33% | 1015.6 hPa | 0 mm | - | - | - |
| 1777387811 | 25.56° C | 30% | 1015.6 hPa | 0 mm | - | - | - |
| 1777385393 | 25.56° C | 30% | 1015.9 hPa | 0 mm | - | - | - |
| 1777385093 | 25.56° C | 30% | 1015.9 hPa | 0 mm | - | - | - |
| 1777383594 | 25° C | 30% | 1016.1 hPa | 0 mm | - | - | - |
| 1777382673 | 25.56° C | 28% | 1016.3 hPa | 0 mm | - | - | - |
| 1777382383 | 25.56° C | 29% | 1016.3 hPa | 0 mm | - | - | - |
| 1777381784 | 25.56° C | 29% | 1016.4 hPa | 0 mm | - | - | - |
| 1777381198 | 25.56° C | 29% | 1016.5 hPa | 0 mm | - | - | - |
| 1777378807 | 25° C | 34% | 1016.4 hPa | 0 mm | - | - | - |
| 1777378200 | 25° C | 35% | 1016.5 hPa | 0 mm | - | - | - |
| 1777376385 | 24.44° C | 39% | 1016.6 hPa | 0 mm | - | - | - |
| 1777375183 | 24.44° C | 42% | 1016.6 hPa | 0 mm | - | - | - |
| 1777374881 | 24.44° C | 44% | 1016.6 hPa | 0 mm | - | - | - |
| 1777373132 | 24.44° C | 46% | 1016.7 hPa | 0 mm | - | - | - |
| 1777369785 | 25° C | 38% | 1017 hPa | 0 mm | - | - | - |
| 1777369180 | 24.44° C | 39% | 1017.1 hPa | 0 mm | - | - | - |
| 1777368578 | 23.89° C | 44% | 1017.1 hPa | 0 mm | - | - | - |
| 1777367988 | 23.33° C | 45% | 1017.2 hPa | 0 mm | - | - | - |
| 1777366469 | 22.22° C | 48% | 1017.2 hPa | 0 mm | - | - | - |
| 1777366182 | 22.22° C | 50% | 1017.2 hPa | 0 mm | - | - | - |
| 1777362580 | 20° C | 60% | 1017.1 hPa | 0 mm | - | - | - |
| 1777362272 | 19.44° C | 61% | 1017.1 hPa | 0 mm | - | - | - |
* Rain latest hour (hover to see other rain measurements)
** Current wind speed in m/s (hover to see current wind gust speed)